sensor_id;sensor_type;location;lat;lon;timestamp;temperature;humidity
68977;SHT31;56029;52.568;13.588;2023-03-14T00:00:47;11.50;89.43
68977;SHT31;56029;52.568;13.588;2023-03-14T00:03:20;11.48;89.74
68977;SHT31;56029;52.568;13.588;2023-03-14T00:05:45;11.40;90.03
68977;SHT31;56029;52.568;13.588;2023-03-14T00:08:11;11.31;90.15
68977;SHT31;56029;52.568;13.588;2023-03-14T00:10:37;11.27;90.16
68977;SHT31;56029;52.568;13.588;2023-03-14T00:13:03;11.27;90.27
68977;SHT31;56029;52.568;13.588;2023-03-14T00:15:28;11.22;90.53
68977;SHT31;56029;52.568;13.588;2023-03-14T00:17:54;11.20;90.31
68977;SHT31;56029;52.568;13.588;2023-03-14T00:20:19;11.22;90.33
68977;SHT31;56029;52.568;13.588;2023-03-14T00:22:45;11.14;91.00
68977;SHT31;56029;52.568;13.588;2023-03-14T00:25:11;11.09;90.62
68977;SHT31;56029;52.568;13.588;2023-03-14T00:27:37;11.07;90.64
68977;SHT31;56029;52.568;13.588;2023-03-14T00:30:04;11.07;90.73
68977;SHT31;56029;52.568;13.588;2023-03-14T00:32:30;10.99;91.19
68977;SHT31;56029;52.568;13.588;2023-03-14T00:34:56;10.95;91.28
68977;SHT31;56029;52.568;13.588;2023-03-14T00:37:22;10.88;91.51
68977;SHT31;56029;52.568;13.588;2023-03-14T00:39:47;10.85;91.37
68977;SHT31;56029;52.568;13.588;2023-03-14T00:42:13;10.82;91.74
68977;SHT31;56029;52.568;13.588;2023-03-14T00:44:39;10.79;91.57
68977;SHT31;56029;52.568;13.588;2023-03-14T00:47:04;10.79;92.03
68977;SHT31;56029;52.568;13.588;2023-03-14T00:49:30;10.75;92.04
68977;SHT31;56029;52.568;13.588;2023-03-14T00:51:56;10.77;92.10
68977;SHT31;56029;52.568;13.588;2023-03-14T00:54:21;10.75;92.41
68977;SHT31;56029;52.568;13.588;2023-03-14T00:56:47;10.76;92.22
68977;SHT31;56029;52.568;13.588;2023-03-14T00:59:13;10.76;92.16
68977;SHT31;56029;52.568;13.588;2023-03-14T01:01:39;10.73;92.42
68977;SHT31;56029;52.568;13.588;2023-03-14T01:04:05;10.73;92.47
68977;SHT31;56029;52.568;13.588;2023-03-14T01:06:31;10.72;92.55
68977;SHT31;56029;52.568;13.588;2023-03-14T01:08:57;10.71;92.86
68977;SHT31;56029;52.568;13.588;2023-03-14T01:11:31;10.64;93.03
68977;SHT31;56029;52.568;13.588;2023-03-14T01:13:57;10.56;93.36
68977;SHT31;56029;52.568;13.588;2023-03-14T01:16:25;10.54;93.32
68977;SHT31;56029;52.568;13.588;2023-03-14T01:18:51;10.49;93.47
68977;SHT31;56029;52.568;13.588;2023-03-14T01:21:25;10.51;93.50
68977;SHT31;56029;52.568;13.588;2023-03-14T01:23:53;10.44;93.67
68977;SHT31;56029;52.568;13.588;2023-03-14T01:26:21;10.45;93.66
68977;SHT31;56029;52.568;13.588;2023-03-14T01:28:48;10.55;93.53
68977;SHT31;56029;52.568;13.588;2023-03-14T01:31:14;10.56;93.61
68977;SHT31;56029;52.568;13.588;2023-03-14T01:33:40;10.56;93.80
68977;SHT31;56029;52.568;13.588;2023-03-14T01:36:07;10.55;93.46
68977;SHT31;56029;52.568;13.588;2023-03-14T01:38:34;10.56;93.62
68977;SHT31;56029;52.568;13.588;2023-03-14T01:41:00;10.59;93.40
68977;SHT31;56029;52.568;13.588;2023-03-14T01:43:26;10.73;93.13
68977;SHT31;56029;52.568;13.588;2023-03-14T01:46:22;10.83;92.69
68977;SHT31;56029;52.568;13.588;2023-03-14T01:51:54;10.91;92.99
68977;SHT31;56029;52.568;13.588;2023-03-14T01:56:54;10.96;92.23
68977;SHT31;56029;52.568;13.588;2023-03-14T01:59:21;11.00;92.51
68977;SHT31;56029;52.568;13.588;2023-03-14T02:01:47;10.96;92.55
68977;SHT31;56029;52.568;13.588;2023-03-14T02:04:15;10.99;92.49
68977;SHT31;56029;52.568;13.588;2023-03-14T02:06:50;10.99;92.30
68977;SHT31;56029;52.568;13.588;2023-03-14T02:09:16;10.97;92.26
68977;SHT31;56029;52.568;13.588;2023-03-14T02:11:43;10.93;92.41
68977;SHT31;56029;52.568;13.588;2023-03-14T02:14:17;10.88;92.49
68977;SHT31;56029;52.568;13.588;2023-03-14T02:16:44;10.91;92.44
68977;SHT31;56029;52.568;13.588;2023-03-14T02:19:11;10.86;92.46
68977;SHT31;56029;52.568;13.588;2023-03-14T02:21:47;10.88;92.72
68977;SHT31;56029;52.568;13.588;2023-03-14T02:24:33;10.86;92.63
68977;SHT31;56029;52.568;13.588;2023-03-14T02:27:12;10.85;92.74
68977;SHT31;56029;52.568;13.588;2023-03-14T02:29:44;10.82;92.73
68977;SHT31;56029;52.568;13.588;2023-03-14T02:32:11;10.82;92.81
68977;SHT31;56029;52.568;13.588;2023-03-14T02:34:37;10.75;92.93
68977;SHT31;56029;52.568;13.588;2023-03-14T02:37:04;10.79;92.78
68977;SHT31;56029;52.568;13.588;2023-03-14T02:39:42;10.77;92.62
68977;SHT31;56029;52.568;13.588;2023-03-14T02:42:10;10.80;92.51
68977;SHT31;56029;52.568;13.588;2023-03-14T02:44:36;10.86;92.77
68977;SHT31;56029;52.568;13.588;2023-03-14T02:47:03;10.92;92.09
68977;SHT31;56029;52.568;13.588;2023-03-14T02:49:31;10.92;92.12
68977;SHT31;56029;52.568;13.588;2023-03-14T02:51:58;10.93;92.19
68977;SHT31;56029;52.568;13.588;2023-03-14T02:54:24;10.89;92.26
68977;SHT31;56029;52.568;13.588;2023-03-14T02:56:49;10.96;91.83
68977;SHT31;56029;52.568;13.588;2023-03-14T02:59:15;10.89;91.95
68977;SHT31;56029;52.568;13.588;2023-03-14T03:01:40;10.86;92.23
68977;SHT31;56029;52.568;13.588;2023-03-14T03:04:06;10.83;92.15
68977;SHT31;56029;52.568;13.588;2023-03-14T03:06:31;10.76;92.16
68977;SHT31;56029;52.568;13.588;2023-03-14T03:08:57;10.71;92.41
68977;SHT31;56029;52.568;13.588;2023-03-14T03:11:22;10.68;92.39
68977;SHT31;56029;52.568;13.588;2023-03-14T03:13:48;10.65;92.55
68977;SHT31;56029;52.568;13.588;2023-03-14T03:16:14;10.58;92.77
68977;SHT31;56029;52.568;13.588;2023-03-14T03:18:40;10.54;92.88
68977;SHT31;56029;52.568;13.588;2023-03-14T03:21:06;10.52;92.93
68977;SHT31;56029;52.568;13.588;2023-03-14T03:23:34;10.55;93.15
68977;SHT31;56029;52.568;13.588;2023-03-14T03:25:59;10.48;93.02
68977;SHT31;56029;52.568;13.588;2023-03-14T03:28:25;10.48;93.06
68977;SHT31;56029;52.568;13.588;2023-03-14T03:30:50;10.46;93.06
68977;SHT31;56029;52.568;13.588;2023-03-14T03:33:16;10.51;92.74
68977;SHT31;56029;52.568;13.588;2023-03-14T03:35:47;10.51;93.03
68977;SHT31;56029;52.568;13.588;2023-03-14T03:38:14;10.44;93.14
68977;SHT31;56029;52.568;13.588;2023-03-14T03:40:39;10.41;93.17
68977;SHT31;56029;52.568;13.588;2023-03-14T03:43:05;10.40;93.15
68977;SHT31;56029;52.568;13.588;2023-03-14T03:45:31;10.37;93.35
68977;SHT31;56029;52.568;13.588;2023-03-14T03:47:56;10.37;93.46
68977;SHT31;56029;52.568;13.588;2023-03-14T03:50:22;10.49;92.64
68977;SHT31;56029;52.568;13.588;2023-03-14T03:52:47;10.51;92.78
68977;SHT31;56029;52.568;13.588;2023-03-14T03:55:13;10.51;92.30
68977;SHT31;56029;52.568;13.588;2023-03-14T03:57:38;10.51;92.52
68977;SHT31;56029;52.568;13.588;2023-03-14T04:00:05;10.45;92.59
68977;SHT31;56029;52.568;13.588;2023-03-14T04:02:31;10.44;92.55
68977;SHT31;56029;52.568;13.588;2023-03-14T04:04:57;10.42;92.71
68977;SHT31;56029;52.568;13.588;2023-03-14T04:07:22;10.45;92.64
68977;SHT31;56029;52.568;13.588;2023-03-14T04:09:48;10.42;92.47
68977;SHT31;56029;52.568;13.588;2023-03-14T04:12:13;10.40;92.55
68977;SHT31;56029;52.568;13.588;2023-03-14T04:14:39;10.41;92.34
68977;SHT31;56029;52.568;13.588;2023-03-14T04:17:06;10.35;92.60
68977;SHT31;56029;52.568;13.588;2023-03-14T04:19:32;10.33;92.55
68977;SHT31;56029;52.568;13.588;2023-03-14T04:21:57;10.41;92.42
68977;SHT31;56029;52.568;13.588;2023-03-14T04:24:23;10.33;92.49
68977;SHT31;56029;52.568;13.588;2023-03-14T04:26:49;10.34;92.66
68977;SHT31;56029;52.568;13.588;2023-03-14T04:29:14;10.37;92.46
68977;SHT31;56029;52.568;13.588;2023-03-14T04:31:40;10.38;92.21
68977;SHT31;56029;52.568;13.588;2023-03-14T04:34:05;10.34;92.20
68977;SHT31;56029;52.568;13.588;2023-03-14T04:36:31;10.27;92.43
68977;SHT31;56029;52.568;13.588;2023-03-14T04:38:57;10.31;92.44
68977;SHT31;56029;52.568;13.588;2023-03-14T04:41:22;10.33;92.36
68977;SHT31;56029;52.568;13.588;2023-03-14T04:43:48;10.28;92.49
68977;SHT31;56029;52.568;13.588;2023-03-14T04:46:13;10.27;92.27
68977;SHT31;56029;52.568;13.588;2023-03-14T04:48:39;10.25;92.21
68977;SHT31;56029;52.568;13.588;2023-03-14T04:51:04;10.25;92.53
68977;SHT31;56029;52.568;13.588;2023-03-14T04:53:30;10.21;92.32
68977;SHT31;56029;52.568;13.588;2023-03-14T04:55:56;10.20;92.36
68977;SHT31;56029;52.568;13.588;2023-03-14T04:58:22;10.16;92.40
68977;SHT31;56029;52.568;13.588;2023-03-14T05:00:48;10.11;92.67
68977;SHT31;56029;52.568;13.588;2023-03-14T05:03:15;10.08;92.53
68977;SHT31;56029;52.568;13.588;2023-03-14T05:05:41;10.11;92.69
68977;SHT31;56029;52.568;13.588;2023-03-14T05:08:06;10.08;92.74
68977;SHT31;56029;52.568;13.588;2023-03-14T05:10:32;10.03;92.89
68977;SHT31;56029;52.568;13.588;2023-03-14T05:12:58;10.07;92.58
68977;SHT31;56029;52.568;13.588;2023-03-14T05:15:23;10.08;92.41
68977;SHT31;56029;52.568;13.588;2023-03-14T05:17:49;10.14;92.08
68977;SHT31;56029;52.568;13.588;2023-03-14T05:20:15;10.10;92.23
68977;SHT31;56029;52.568;13.588;2023-03-14T05:22:41;10.16;92.10
68977;SHT31;56029;52.568;13.588;2023-03-14T05:25:07;10.13;91.80
68977;SHT31;56029;52.568;13.588;2023-03-14T05:27:33;10.03;91.96
68977;SHT31;56029;52.568;13.588;2023-03-14T05:29:59;10.08;91.88
68977;SHT31;56029;52.568;13.588;2023-03-14T05:32:24;10.04;92.12
68977;SHT31;56029;52.568;13.588;2023-03-14T05:34:50;10.07;91.73
68977;SHT31;56029;52.568;13.588;2023-03-14T05:37:15;10.06;91.85
68977;SHT31;56029;52.568;13.588;2023-03-14T05:39:41;10.10;91.51
68977;SHT31;56029;52.568;13.588;2023-03-14T05:42:06;10.11;91.30
68977;SHT31;56029;52.568;13.588;2023-03-14T05:44:32;10.16;90.90
68977;SHT31;56029;52.568;13.588;2023-03-14T05:46:57;10.16;91.06
68977;SHT31;56029;52.568;13.588;2023-03-14T05:49:23;10.25;90.55
68977;SHT31;56029;52.568;13.588;2023-03-14T05:51:49;10.25;90.68
68977;SHT31;56029;52.568;13.588;2023-03-14T05:54:14;10.22;90.22
68977;SHT31;56029;52.568;13.588;2023-03-14T05:56:40;10.22;90.33
68977;SHT31;56029;52.568;13.588;2023-03-14T05:59:05;10.21;90.56
68977;SHT31;56029;52.568;13.588;2023-03-14T06:01:32;10.25;89.86
68977;SHT31;56029;52.568;13.588;2023-03-14T06:03:58;10.27;90.02
68977;SHT31;56029;52.568;13.588;2023-03-14T06:06:23;10.30;89.43
68977;SHT31;56029;52.568;13.588;2023-03-14T06:08:49;10.30;89.12
68977;SHT31;56029;52.568;13.588;2023-03-14T06:11:15;10.37;88.85
68977;SHT31;56029;52.568;13.588;2023-03-14T06:13:40;10.42;88.63
68977;SHT31;56029;52.568;13.588;2023-03-14T06:16:06;10.44;88.15
68977;SHT31;56029;52.568;13.588;2023-03-14T06:18:32;10.46;87.98
68977;SHT31;56029;52.568;13.588;2023-03-14T06:20:57;10.44;88.03
68977;SHT31;56029;52.568;13.588;2023-03-14T06:23:23;10.51;87.97
68977;SHT31;56029;52.568;13.588;2023-03-14T06:25:49;10.48;88.28
68977;SHT31;56029;52.568;13.588;2023-03-14T06:28:14;10.48;87.62
68977;SHT31;56029;52.568;13.588;2023-03-14T06:30:40;10.58;86.80
68977;SHT31;56029;52.568;13.588;2023-03-14T06:33:05;10.59;87.02
68977;SHT31;56029;52.568;13.588;2023-03-14T06:35:31;10.59;87.12
68977;SHT31;56029;52.568;13.588;2023-03-14T06:37:57;10.61;86.89
68977;SHT31;56029;52.568;13.588;2023-03-14T06:40:23;10.71;86.24
68977;SHT31;56029;52.568;13.588;2023-03-14T06:42:48;10.75;85.97
68977;SHT31;56029;52.568;13.588;2023-03-14T06:45:14;10.79;85.48
68977;SHT31;56029;52.568;13.588;2023-03-14T06:47:40;10.80;86.09
68977;SHT31;56029;52.568;13.588;2023-03-14T06:50:07;10.86;85.73
68977;SHT31;56029;52.568;13.588;2023-03-14T06:52:32;10.93;84.88
68977;SHT31;56029;52.568;13.588;2023-03-14T06:54:58;10.99;84.83
68977;SHT31;56029;52.568;13.588;2023-03-14T06:57:23;10.99;84.95
68977;SHT31;56029;52.568;13.588;2023-03-14T06:59:49;11.09;84.32
68977;SHT31;56029;52.568;13.588;2023-03-14T07:02:15;11.12;83.98
68977;SHT31;56029;52.568;13.588;2023-03-14T07:04:40;11.13;84.69
68977;SHT31;56029;52.568;13.588;2023-03-14T07:07:06;11.14;84.47
68977;SHT31;56029;52.568;13.588;2023-03-14T07:09:32;11.19;84.04
68977;SHT31;56029;52.568;13.588;2023-03-14T07:11:58;11.33;83.47
68977;SHT31;56029;52.568;13.588;2023-03-14T07:14:24;11.37;83.65
68977;SHT31;56029;52.568;13.588;2023-03-14T07:16:49;11.44;83.52
68977;SHT31;56029;52.568;13.588;2023-03-14T07:19:15;11.47;83.30
68977;SHT31;56029;52.568;13.588;2023-03-14T07:21:43;11.50;83.07
68977;SHT31;56029;52.568;13.588;2023-03-14T07:24:09;11.44;82.74
68977;SHT31;56029;52.568;13.588;2023-03-14T07:26:34;11.41;83.77
68977;SHT31;56029;52.568;13.588;2023-03-14T07:29:00;11.34;83.59
68977;SHT31;56029;52.568;13.588;2023-03-14T07:31:29;11.34;83.09
68977;SHT31;56029;52.568;13.588;2023-03-14T07:33:54;11.34;83.09
68977;SHT31;56029;52.568;13.588;2023-03-14T07:36:20;11.37;83.33
68977;SHT31;56029;52.568;13.588;2023-03-14T07:38:46;11.35;83.93
68977;SHT31;56029;52.568;13.588;2023-03-14T07:41:11;11.40;83.01
68977;SHT31;56029;52.568;13.588;2023-03-14T07:43:37;11.40;83.05
68977;SHT31;56029;52.568;13.588;2023-03-14T07:46:03;11.43;83.03
68977;SHT31;56029;52.568;13.588;2023-03-14T07:48:28;11.37;82.83
68977;SHT31;56029;52.568;13.588;2023-03-14T07:50:55;11.33;83.36
68977;SHT31;56029;52.568;13.588;2023-03-14T07:53:24;11.31;83.70
68977;SHT31;56029;52.568;13.588;2023-03-14T07:55:53;11.23;83.88
68977;SHT31;56029;52.568;13.588;2023-03-14T07:58:20;11.24;84.14
68977;SHT31;56029;52.568;13.588;2023-03-14T08:00:47;11.26;83.24
68977;SHT31;56029;52.568;13.588;2023-03-14T08:03:13;11.30;83.36
68977;SHT31;56029;52.568;13.588;2023-03-14T08:05:38;11.33;83.05
68977;SHT31;56029;52.568;13.588;2023-03-14T08:08:04;11.27;83.61
68977;SHT31;56029;52.568;13.588;2023-03-14T08:10:30;11.30;84.38
68977;SHT31;56029;52.568;13.588;2023-03-14T08:12:58;11.35;83.78
68977;SHT31;56029;52.568;13.588;2023-03-14T08:15:24;11.41;83.46
68977;SHT31;56029;52.568;13.588;2023-03-14T08:17:52;11.47;82.75
68977;SHT31;56029;52.568;13.588;2023-03-14T08:20:18;11.50;83.14
68977;SHT31;56029;52.568;13.588;2023-03-14T08:22:44;11.54;82.85
68977;SHT31;56029;52.568;13.588;2023-03-14T08:25:10;11.55;83.06
68977;SHT31;56029;52.568;13.588;2023-03-14T08:27:36;11.62;82.18
68977;SHT31;56029;52.568;13.588;2023-03-14T08:30:05;11.77;81.88
68977;SHT31;56029;52.568;13.588;2023-03-14T08:32:31;11.86;81.68
68977;SHT31;56029;52.568;13.588;2023-03-14T08:34:57;11.89;82.10
68977;SHT31;56029;52.568;13.588;2023-03-14T08:37:22;11.96;81.43
68977;SHT31;56029;52.568;13.588;2023-03-14T08:39:49;12.03;81.44
68977;SHT31;56029;52.568;13.588;2023-03-14T08:42:15;12.11;81.22
68977;SHT31;56029;52.568;13.588;2023-03-14T08:44:40;12.11;80.84
68977;SHT31;56029;52.568;13.588;2023-03-14T08:47:07;12.12;81.18
68977;SHT31;56029;52.568;13.588;2023-03-14T08:49:32;12.09;80.97
68977;SHT31;56029;52.568;13.588;2023-03-14T08:51:58;12.18;81.12
68977;SHT31;56029;52.568;13.588;2023-03-14T08:54:27;12.23;80.94
68977;SHT31;56029;52.568;13.588;2023-03-14T08:56:52;12.30;81.01
68977;SHT31;56029;52.568;13.588;2023-03-14T08:59:18;12.28;80.77
68977;SHT31;56029;52.568;13.588;2023-03-14T09:01:43;12.34;80.13
68977;SHT31;56029;52.568;13.588;2023-03-14T09:04:09;12.28;80.26
68977;SHT31;56029;52.568;13.588;2023-03-14T09:06:35;12.32;80.82
68977;SHT31;56029;52.568;13.588;2023-03-14T09:09:00;12.29;80.07
68977;SHT31;56029;52.568;13.588;2023-03-14T09:11:27;12.25;80.64
68977;SHT31;56029;52.568;13.588;2023-03-14T09:13:52;12.26;81.70
68977;SHT31;56029;52.568;13.588;2023-03-14T09:16:18;12.23;81.13
68977;SHT31;56029;52.568;13.588;2023-03-14T09:18:43;12.29;80.98
68977;SHT31;56029;52.568;13.588;2023-03-14T09:21:10;12.36;80.43
68977;SHT31;56029;52.568;13.588;2023-03-14T09:23:35;12.49;80.63
68977;SHT31;56029;52.568;13.588;2023-03-14T09:26:01;12.65;80.46
68977;SHT31;56029;52.568;13.588;2023-03-14T09:28:26;12.73;79.93
68977;SHT31;56029;52.568;13.588;2023-03-14T09:30:52;12.77;79.95
68977;SHT31;56029;52.568;13.588;2023-03-14T09:33:18;12.76;79.09
68977;SHT31;56029;52.568;13.588;2023-03-14T09:35:44;12.81;79.71
68977;SHT31;56029;52.568;13.588;2023-03-14T09:38:09;12.90;78.99
68977;SHT31;56029;52.568;13.588;2023-03-14T09:40:36;12.87;79.28
68977;SHT31;56029;52.568;13.588;2023-03-14T09:43:10;12.98;78.25
68977;SHT31;56029;52.568;13.588;2023-03-14T09:45:40;12.97;77.85
68977;SHT31;56029;52.568;13.588;2023-03-14T09:48:19;13.05;77.51
68977;SHT31;56029;52.568;13.588;2023-03-14T09:50:49;13.32;77.16
68977;SHT31;56029;52.568;13.588;2023-03-14T09:53:21;13.55;76.40
68977;SHT31;56029;52.568;13.588;2023-03-14T09:55:50;13.71;76.46
68977;SHT31;56029;52.568;13.588;2023-03-14T09:58:20;13.80;74.47
68977;SHT31;56029;52.568;13.588;2023-03-14T10:00:46;13.76;74.10
68977;SHT31;56029;52.568;13.588;2023-03-14T10:05:38;13.39;74.06
68977;SHT31;56029;52.568;13.588;2023-03-14T10:08:04;13.32;74.88
68977;SHT31;56029;52.568;13.588;2023-03-14T10:10:30;13.23;75.38
68977;SHT31;56029;52.568;13.588;2023-03-14T10:12:58;13.23;75.58
68977;SHT31;56029;52.568;13.588;2023-03-14T10:15:31;13.18;75.37
68977;SHT31;56029;52.568;13.588;2023-03-14T10:18:00;13.11;75.95
68977;SHT31;56029;52.568;13.588;2023-03-14T10:20:34;13.07;75.05
68977;SHT31;56029;52.568;13.588;2023-03-14T10:23:02;13.05;75.60
68977;SHT31;56029;52.568;13.588;2023-03-14T10:25:36;13.09;74.89
68977;SHT31;56029;52.568;13.588;2023-03-14T10:28:03;13.11;76.01
68977;SHT31;56029;52.568;13.588;2023-03-14T10:30:47;13.11;74.65
68977;SHT31;56029;52.568;13.588;2023-03-14T10:33:23;13.16;74.54
68977;SHT31;56029;52.568;13.588;2023-03-14T10:38:32;13.32;75.42
68977;SHT31;56029;52.568;13.588;2023-03-14T10:40:58;13.30;74.15
68977;SHT31;56029;52.568;13.588;2023-03-14T10:43:27;13.30;74.84
68977;SHT31;56029;52.568;13.588;2023-03-14T10:45:57;13.30;74.85
68977;SHT31;56029;52.568;13.588;2023-03-14T10:48:32;13.22;74.49
68977;SHT31;56029;52.568;13.588;2023-03-14T10:53:44;13.16;73.75
68977;SHT31;56029;52.568;13.588;2023-03-14T10:56:21;13.09;74.29
68977;SHT31;56029;52.568;13.588;2023-03-14T10:58:49;13.15;74.66
68977;SHT31;56029;52.568;13.588;2023-03-14T11:06:48;13.15;73.88
68977;SHT31;56029;52.568;13.588;2023-03-14T11:09:32;13.12;74.41
68977;SHT31;56029;52.568;13.588;2023-03-14T11:18:26;13.14;74.93
68977;SHT31;56029;52.568;13.588;2023-03-14T11:21:02;13.19;73.83
68977;SHT31;56029;52.568;13.588;2023-03-14T11:23:44;13.20;73.12
68977;SHT31;56029;52.568;13.588;2023-03-14T11:28:50;13.20;74.87
68977;SHT31;56029;52.568;13.588;2023-03-14T11:31:26;13.23;74.00
68977;SHT31;56029;52.568;13.588;2023-03-14T11:34:01;13.25;74.12
68977;SHT31;56029;52.568;13.588;2023-03-14T11:36:39;13.23;74.44
68977;SHT31;56029;52.568;13.588;2023-03-14T11:39:14;13.23;74.19
68977;SHT31;56029;52.568;13.588;2023-03-14T11:41:41;13.30;74.35
68977;SHT31;56029;52.568;13.588;2023-03-14T11:44:19;13.29;74.94
68977;SHT31;56029;52.568;13.588;2023-03-14T11:46:59;13.29;74.46
68977;SHT31;56029;52.568;13.588;2023-03-14T11:49:36;13.28;74.46
68977;SHT31;56029;52.568;13.588;2023-03-14T11:52:37;13.30;74.19
68977;SHT31;56029;52.568;13.588;2023-03-14T11:55:26;13.39;74.67
68977;SHT31;56029;52.568;13.588;2023-03-14T11:57:56;13.50;74.84
68977;SHT31;56029;52.568;13.588;2023-03-14T12:00:24;13.56;74.35
68977;SHT31;56029;52.568;13.588;2023-03-14T12:08:42;13.74;75.63
68977;SHT31;56029;52.568;13.588;2023-03-14T12:11:13;13.84;75.15
68977;SHT31;56029;52.568;13.588;2023-03-14T12:13:40;13.76;75.17
68977;SHT31;56029;52.568;13.588;2023-03-14T12:16:30;13.76;75.99
68977;SHT31;56029;52.568;13.588;2023-03-14T12:21:54;13.93;76.01
68977;SHT31;56029;52.568;13.588;2023-03-14T12:24:27;13.98;76.14
68977;SHT31;56029;52.568;13.588;2023-03-14T12:26:59;14.03;76.46
68977;SHT31;56029;52.568;13.588;2023-03-14T12:29:27;13.88;76.23
68977;SHT31;56029;52.568;13.588;2023-03-14T12:37:33;14.00;77.42
68977;SHT31;56029;52.568;13.588;2023-03-14T12:40:19;13.83;77.23
68977;SHT31;56029;52.568;13.588;2023-03-14T12:42:59;13.84;77.16
68977;SHT31;56029;52.568;13.588;2023-03-14T12:45:32;13.86;77.24
68977;SHT31;56029;52.568;13.588;2023-03-14T12:48:15;13.94;77.29
68977;SHT31;56029;52.568;13.588;2023-03-14T12:50:44;13.97;76.26
68977;SHT31;56029;52.568;13.588;2023-03-14T12:58:30;14.13;78.31
68977;SHT31;56029;52.568;13.588;2023-03-14T13:01:01;13.87;77.15
68977;SHT31;56029;52.568;13.588;2023-03-14T13:03:50;13.90;77.94
68977;SHT31;56029;52.568;13.588;2023-03-14T13:06:51;13.81;78.01
68977;SHT31;56029;52.568;13.588;2023-03-14T13:12:09;13.83;78.11
68977;SHT31;56029;52.568;13.588;2023-03-14T13:14:40;13.81;78.07
68977;SHT31;56029;52.568;13.588;2023-03-14T13:17:10;13.60;78.30
68977;SHT31;56029;52.568;13.588;2023-03-14T13:19:36;13.42;79.40
68977;SHT31;56029;52.568;13.588;2023-03-14T13:22:06;13.30;81.54
68977;SHT31;56029;52.568;13.588;2023-03-14T13:24:38;13.23;83.97
68977;SHT31;56029;52.568;13.588;2023-03-14T13:27:03;13.14;83.74
68977;SHT31;56029;52.568;13.588;2023-03-14T13:29:32;13.11;84.25
68977;SHT31;56029;52.568;13.588;2023-03-14T13:32:19;13.12;84.49
68977;SHT31;56029;52.568;13.588;2023-03-14T13:34:46;12.99;84.41
68977;SHT31;56029;52.568;13.588;2023-03-14T13:37:20;12.81;85.36
68977;SHT31;56029;52.568;13.588;2023-03-14T13:39:51;12.81;85.93
68977;SHT31;56029;52.568;13.588;2023-03-14T13:42:17;12.95;88.18
68977;SHT31;56029;52.568;13.588;2023-03-14T13:44:43;13.02;89.30
68977;SHT31;56029;52.568;13.588;2023-03-14T13:47:17;13.02;88.90
68977;SHT31;56029;52.568;13.588;2023-03-14T13:49:43;13.04;87.58
68977;SHT31;56029;52.568;13.588;2023-03-14T13:52:29;13.02;87.35
68977;SHT31;56029;52.568;13.588;2023-03-14T13:54:57;13.04;87.17
68977;SHT31;56029;52.568;13.588;2023-03-14T13:57:23;13.12;86.98
68977;SHT31;56029;52.568;13.588;2023-03-14T14:00:00;13.29;88.00
68977;SHT31;56029;52.568;13.588;2023-03-14T14:02:26;13.29;83.97
68977;SHT31;56029;52.568;13.588;2023-03-14T14:04:53;13.39;85.55
68977;SHT31;56029;52.568;13.588;2023-03-14T14:07:18;13.45;84.76
68977;SHT31;56029;52.568;13.588;2023-03-14T14:09:47;13.56;84.99
68977;SHT31;56029;52.568;13.588;2023-03-14T14:12:35;13.63;84.73
68977;SHT31;56029;52.568;13.588;2023-03-14T14:15:11;13.59;84.60
68977;SHT31;56029;52.568;13.588;2023-03-14T14:17:54;13.67;84.77
68977;SHT31;56029;52.568;13.588;2023-03-14T14:20:37;13.88;83.74
68977;SHT31;56029;52.568;13.588;2023-03-14T14:23:05;13.90;81.41
68977;SHT31;56029;52.568;13.588;2023-03-14T14:25:33;14.01;81.45
68977;SHT31;56029;52.568;13.588;2023-03-14T14:27:59;13.93;80.62
68977;SHT31;56029;52.568;13.588;2023-03-14T14:30:39;13.97;80.58
68977;SHT31;56029;52.568;13.588;2023-03-14T14:33:17;14.10;81.40
68977;SHT31;56029;52.568;13.588;2023-03-14T14:35:59;14.07;80.56
68977;SHT31;56029;52.568;13.588;2023-03-14T14:38:25;14.11;80.82
68977;SHT31;56029;52.568;13.588;2023-03-14T14:40:54;13.91;80.69
68977;SHT31;56029;52.568;13.588;2023-03-14T14:43:25;13.77;81.16
68977;SHT31;56029;52.568;13.588;2023-03-14T14:45:53;13.67;81.21
68977;SHT31;56029;52.568;13.588;2023-03-14T14:48:22;13.63;81.94
68977;SHT31;56029;52.568;13.588;2023-03-14T14:53:42;13.48;82.72
68977;SHT31;56029;52.568;13.588;2023-03-14T14:56:25;13.48;82.19
68977;SHT31;56029;52.568;13.588;2023-03-14T14:58:57;13.45;81.27
68977;SHT31;56029;52.568;13.588;2023-03-14T15:01:24;13.50;80.80
68977;SHT31;56029;52.568;13.588;2023-03-14T15:03:51;13.60;80.35
68977;SHT31;56029;52.568;13.588;2023-03-14T15:06:18;13.65;80.22
68977;SHT31;56029;52.568;13.588;2023-03-14T15:08:45;13.62;78.99
68977;SHT31;56029;52.568;13.588;2023-03-14T15:11:19;13.52;79.17
68977;SHT31;56029;52.568;13.588;2023-03-14T15:13:45;13.49;78.96
68977;SHT31;56029;52.568;13.588;2023-03-14T15:16:12;13.39;79.90
68977;SHT31;56029;52.568;13.588;2023-03-14T15:18:39;13.30;80.23
68977;SHT31;56029;52.568;13.588;2023-03-14T15:21:05;13.15;80.62
68977;SHT31;56029;52.568;13.588;2023-03-14T15:23:31;13.07;80.88
68977;SHT31;56029;52.568;13.588;2023-03-14T15:25:57;12.99;80.96
68977;SHT31;56029;52.568;13.588;2023-03-14T15:28:25;12.90;81.48
68977;SHT31;56029;52.568;13.588;2023-03-14T15:30:54;11.43;84.35
68977;SHT31;56029;52.568;13.588;2023-03-14T15:33:20;9.35;92.74
68977;SHT31;56029;52.568;13.588;2023-03-14T15:35:47;7.30;97.72
68977;SHT31;56029;52.568;13.588;2023-03-14T15:38:15;6.10;99.21
68977;SHT31;56029;52.568;13.588;2023-03-14T15:40:42;5.58;99.88
68977;SHT31;56029;52.568;13.588;2023-03-14T15:43:08;5.33;99.79
68977;SHT31;56029;52.568;13.588;2023-03-14T15:45:34;4.99;99.50
68977;SHT31;56029;52.568;13.588;2023-03-14T15:48:00;4.54;98.84
68977;SHT31;56029;52.568;13.588;2023-03-14T15:50:26;4.24;99.50
68977;SHT31;56029;52.568;13.588;2023-03-14T15:52:52;4.07;99.42
68977;SHT31;56029;52.568;13.588;2023-03-14T15:55:18;3.85;99.65
68977;SHT31;56029;52.568;13.588;2023-03-14T15:57:44;3.49;98.88
68977;SHT31;56029;52.568;13.588;2023-03-14T16:00:16;3.17;98.62
68977;SHT31;56029;52.568;13.588;2023-03-14T16:02:43;2.90;99.82
68977;SHT31;56029;52.568;13.588;2023-03-14T16:05:13;2.62;99.30
68977;SHT31;56029;52.568;13.588;2023-03-14T16:07:39;2.46;99.68
68977;SHT31;56029;52.568;13.588;2023-03-14T16:10:06;2.32;99.99
68977;SHT31;56029;52.568;13.588;2023-03-14T16:12:33;2.25;99.99
68977;SHT31;56029;52.568;13.588;2023-03-14T16:14:59;2.17;99.99
68977;SHT31;56029;52.568;13.588;2023-03-14T16:17:25;1.94;99.99